Disclaimer

Please do not use the information listed here in-flight or in-navigation, as they are not provided to us by the airports but are provided by volunteers, so they might be outdated.

Search


Regions


Airport information page

No radio frequency information is available.

Airport informations:
Latitude: 48° 26' 52.48" N
Longitude: 004° 25' 06.74" W
Elevation: 325 feet - 99 meters
Operating hours: 24 hour operations
Operating agency: Civil government, landing fees and diplomatic clearance may be required
Timezone: UTC+1(+2DT) - Last Sunday in March to last Sunday in October
Fuel: Jet A1, without icing nhibitor.

100/130 MIL Spec, low lead, aviation gasoline (BLUE)

Runway information:
07R/25L - 10171 x 148 feet< - >3100 x 45 meters
07L/25R - 2297 x 59 feet< - >700 x 18 meters

Recent METARs:
LFRB 211900Z AUTO 13015KT 9999 FEW038 BKN092 OVC110 06/01 Q1011 TEMPO RA BKN010 SCT020TCU
LFRB 211930Z AUTO 13014KT CAVOK 06/01 Q1011 TEMPO RA BKN010 SCT020TCU
LFRB 212000Z AUTO 13014KT CAVOK 05/00 Q1011 TEMPO RA BKN010 SCT020TCU

Airport on the map: